createdAt,value
2023-03-31T00:00:14.940Z,9.21
2023-03-31T00:03:02.874Z,9.27
2023-03-31T00:05:53.475Z,9.14
2023-03-31T00:08:42.909Z,9.16
2023-03-31T00:11:29.770Z,9.01
2023-03-31T00:14:19.385Z,9.20
2023-03-31T00:17:05.851Z,9.08
2023-03-31T00:19:52.436Z,9.19
2023-03-31T00:22:42.449Z,9.11
2023-03-31T00:25:28.855Z,9.07
2023-03-31T00:28:15.434Z,9.30
2023-03-31T00:31:03.862Z,9.23
2023-03-31T00:33:50.952Z,9.16
2023-03-31T00:36:47.369Z,9.24
2023-03-31T00:39:35.381Z,9.25
2023-03-31T00:42:22.444Z,9.34
2023-03-31T00:45:15.452Z,9.63
2023-03-31T00:48:05.488Z,9.50
2023-03-31T00:50:55.683Z,9.68
2023-03-31T00:53:42.415Z,9.66
2023-03-31T00:56:34.599Z,9.81
2023-03-31T00:59:27.551Z,9.96
2023-03-31T01:02:15.875Z,9.74
2023-03-31T01:05:02.752Z,9.80
2023-03-31T01:07:51.847Z,10.04
2023-03-31T01:10:43.355Z,9.99
2023-03-31T01:13:31.984Z,10.10
2023-03-31T01:16:19.239Z,10.43
2023-03-31T01:19:14.392Z,10.40
2023-03-31T01:22:20.311Z,10.42
2023-03-31T01:25:23.534Z,10.62
2023-03-31T01:28:29.579Z,10.78
2023-03-31T01:31:23.379Z,10.74
2023-03-31T01:34:47.277Z,10.88
2023-03-31T01:37:58.327Z,11.22
2023-03-31T01:40:47.703Z,11.31
2023-03-31T01:43:48.111Z,11.53
2023-03-31T01:47:14.350Z,11.56
2023-03-31T01:50:11.204Z,11.63
2023-03-31T01:53:18.358Z,11.61
2023-03-31T01:56:07.875Z,11.44
2023-03-31T01:59:08.206Z,11.42
2023-03-31T02:02:09.729Z,11.29
2023-03-31T02:05:03.098Z,11.12
2023-03-31T02:07:55.304Z,10.95
2023-03-31T02:10:45.686Z,10.87
2023-03-31T02:13:34.884Z,10.75
2023-03-31T02:16:26.768Z,10.62
2023-03-31T02:19:18.827Z,10.57
2023-03-31T02:22:10.648Z,10.59
2023-03-31T02:24:59.024Z,10.66
2023-03-31T02:27:51.724Z,10.57
2023-03-31T02:30:58.829Z,10.71
2023-03-31T02:33:48.848Z,10.63
2023-03-31T02:36:38.690Z,10.52
2023-03-31T02:39:31.710Z,10.42
2023-03-31T02:42:19.673Z,10.39
2023-03-31T02:45:40.018Z,10.28
2023-03-31T02:48:40.720Z,10.06
2023-03-31T02:51:37.303Z,10.00
2023-03-31T02:54:51.643Z,9.88
2023-03-31T02:58:06.561Z,9.71
2023-03-31T03:01:11.284Z,9.76
2023-03-31T03:04:11.947Z,9.75
2023-03-31T03:07:17.937Z,9.60
2023-03-31T03:10:14.439Z,9.63
2023-03-31T03:13:04.032Z,9.71
2023-03-31T03:16:05.845Z,9.56
2023-03-31T03:19:00.646Z,9.43
2023-03-31T03:21:47.642Z,9.39
2023-03-31T03:24:34.521Z,9.59
2023-03-31T03:27:24.440Z,9.48
2023-03-31T03:30:12.786Z,9.62
2023-03-31T03:32:59.193Z,9.62
2023-03-31T03:35:46.208Z,9.65
2023-03-31T03:38:32.644Z,9.68
2023-03-31T03:41:18.985Z,9.78
2023-03-31T03:44:05.729Z,9.77
2023-03-31T03:46:52.282Z,9.90
2023-03-31T03:49:38.600Z,9.71
2023-03-31T03:52:24.969Z,9.80
2023-03-31T03:55:12.226Z,9.80
2023-03-31T03:57:58.801Z,9.66
2023-03-31T04:00:45.378Z,9.34
2023-03-31T04:03:32.110Z,9.14
2023-03-31T04:06:18.505Z,8.85
2023-03-31T04:09:05.348Z,8.78
2023-03-31T04:11:51.661Z,8.89
2023-03-31T04:14:38.101Z,8.89
2023-03-31T04:17:32.668Z,8.82
2023-03-31T04:20:19.818Z,8.87
2023-03-31T04:23:09.581Z,8.86
2023-03-31T04:25:55.979Z,8.94
2023-03-31T04:28:50.580Z,8.98
2023-03-31T04:31:38.822Z,9.00
2023-03-31T04:34:34.529Z,8.99
2023-03-31T04:37:20.751Z,9.07
2023-03-31T04:40:08.129Z,8.70
2023-03-31T04:42:54.574Z,9.25
2023-03-31T04:45:41.277Z,9.14
2023-03-31T04:48:27.626Z,9.29
2023-03-31T04:51:15.492Z,9.61
2023-03-31T04:54:02.794Z,9.65
2023-03-31T04:56:49.080Z,9.54
2023-03-31T04:59:35.816Z,9.48
2023-03-31T05:02:25.768Z,9.54
2023-03-31T05:05:12.314Z,9.39
2023-03-31T05:07:58.810Z,9.31
2023-03-31T05:10:45.283Z,9.36
2023-03-31T05:13:31.576Z,9.43
2023-03-31T05:16:18.320Z,9.46
2023-03-31T05:19:04.905Z,9.45
2023-03-31T05:21:51.353Z,9.38
2023-03-31T05:24:37.884Z,9.35
2023-03-31T05:27:24.338Z,9.48
2023-03-31T05:30:11.310Z,9.39
2023-03-31T05:32:58.184Z,9.38
2023-03-31T05:35:44.784Z,9.31
2023-03-31T05:38:31.810Z,9.22
2023-03-31T05:41:18.571Z,9.22
2023-03-31T05:44:07.755Z,9.23
2023-03-31T05:46:57.564Z,9.10
2023-03-31T05:49:44.238Z,9.09
2023-03-31T05:52:32.881Z,9.02
2023-03-31T05:55:19.465Z,8.94
2023-03-31T05:58:06.757Z,9.06
2023-03-31T06:01:06.043Z,8.97
2023-03-31T06:03:52.891Z,8.99
2023-03-31T06:06:39.621Z,8.94
2023-03-31T06:09:26.364Z,8.74
2023-03-31T06:12:12.632Z,8.84
2023-03-31T06:14:59.039Z,8.86
2023-03-31T06:17:45.287Z,8.90
2023-03-31T06:20:31.598Z,9.00
2023-03-31T06:23:18.104Z,8.98
2023-03-31T06:26:08.806Z,9.13
2023-03-31T06:28:55.676Z,9.17
2023-03-31T06:31:41.991Z,9.37
2023-03-31T06:34:28.824Z,9.31
2023-03-31T06:37:15.405Z,9.24
2023-03-31T06:40:01.707Z,9.10
2023-03-31T06:42:47.994Z,9.10
2023-03-31T06:45:34.622Z,9.11
2023-03-31T06:48:23.299Z,9.21
2023-03-31T06:51:10.357Z,9.32
2023-03-31T06:53:56.599Z,9.25
2023-03-31T06:56:43.174Z,9.22
2023-03-31T06:59:29.965Z,9.26
2023-03-31T07:02:16.529Z,9.19
2023-03-31T07:05:03.032Z,9.34
2023-03-31T07:07:49.741Z,9.28
2023-03-31T07:10:36.278Z,9.28
2023-03-31T07:13:23.099Z,9.15
2023-03-31T07:16:09.913Z,9.41
2023-03-31T07:18:59.681Z,9.61
2023-03-31T07:21:46.191Z,9.77
2023-03-31T07:24:32.425Z,9.94
2023-03-31T07:27:18.764Z,10.13
2023-03-31T07:30:07.447Z,10.26
2023-03-31T07:32:54.774Z,10.36
2023-03-31T07:35:41.844Z,10.18
2023-03-31T07:38:28.394Z,10.23
2023-03-31T07:41:17.903Z,10.56
2023-03-31T07:44:04.631Z,10.64
2023-03-31T07:46:51.342Z,10.82
2023-03-31T07:49:38.120Z,11.00
2023-03-31T07:52:24.784Z,11.13
2023-03-31T07:55:12.642Z,11.46
2023-03-31T07:57:58.966Z,11.59
2023-03-31T08:00:46.014Z,11.76
2023-03-31T08:03:32.494Z,11.68
2023-03-31T08:06:21.861Z,11.74
2023-03-31T08:09:08.228Z,11.83
2023-03-31T08:11:54.616Z,12.10
2023-03-31T08:14:42.950Z,12.38
2023-03-31T08:17:29.377Z,12.55
2023-03-31T08:20:15.916Z,12.75
2023-03-31T08:23:02.586Z,13.11
2023-03-31T08:25:49.073Z,13.43
2023-03-31T08:28:35.730Z,13.64
2023-03-31T08:31:25.988Z,13.49
2023-03-31T08:34:15.057Z,13.49
2023-03-31T08:37:02.924Z,13.33
2023-03-31T08:39:50.260Z,13.41
2023-03-31T08:42:46.544Z,13.60
2023-03-31T08:45:42.966Z,13.61
2023-03-31T08:48:46.135Z,13.95
2023-03-31T08:51:41.295Z,14.25
2023-03-31T08:54:37.158Z,14.30
2023-03-31T08:57:32.082Z,14.22
2023-03-31T09:00:19.467Z,14.18
2023-03-31T09:03:18.823Z,14.44
2023-03-31T09:06:09.028Z,14.09
2023-03-31T09:09:01.765Z,14.13
2023-03-31T09:11:54.872Z,13.99
2023-03-31T09:14:52.176Z,14.11
2023-03-31T09:17:46.321Z,14.19
2023-03-31T09:20:36.777Z,13.94
2023-03-31T09:23:34.907Z,14.04
2023-03-31T09:26:40.471Z,14.19
2023-03-31T09:29:49.432Z,14.23
2023-03-31T09:32:38.800Z,14.18
2023-03-31T09:35:26.559Z,14.12
2023-03-31T09:38:14.521Z,14.22
2023-03-31T09:41:03.278Z,14.55
2023-03-31T09:43:51.634Z,14.68
2023-03-31T09:46:39.014Z,14.70
2023-03-31T09:49:28.605Z,14.49
2023-03-31T09:52:31.726Z,14.27
2023-03-31T09:56:00.609Z,14.15
2023-03-31T09:58:46.874Z,14.46
2023-03-31T10:01:36.548Z,14.49
2023-03-31T10:04:25.830Z,14.24
2023-03-31T10:07:13.458Z,13.95
2023-03-31T10:10:00.548Z,13.81
2023-03-31T10:12:55.071Z,13.22
2023-03-31T10:15:42.436Z,12.51
2023-03-31T10:18:37.999Z,12.06
2023-03-31T10:21:36.745Z,11.88
2023-03-31T10:24:23.536Z,11.91
2023-03-31T10:27:30.317Z,12.09
2023-03-31T10:30:22.711Z,12.00
2023-03-31T10:33:22.654Z,12.24
2023-03-31T10:36:17.207Z,12.19
2023-03-31T10:39:07.643Z,12.03
2023-03-31T10:41:54.054Z,12.11
2023-03-31T10:44:40.328Z,12.55
2023-03-31T10:47:33.096Z,13.06
2023-03-31T10:50:19.259Z,13.28
2023-03-31T10:53:12.969Z,13.45
2023-03-31T10:56:16.386Z,13.68
2023-03-31T10:59:34.901Z,14.13
2023-03-31T11:02:48.154Z,14.47
2023-03-31T11:05:52.329Z,14.07
2023-03-31T11:08:52.124Z,13.49
2023-03-31T11:12:04.696Z,12.46
2023-03-31T11:15:13.350Z,10.71
2023-03-31T11:18:18.708Z,9.79
2023-03-31T11:21:27.933Z,9.27
2023-03-31T11:24:35.510Z,8.97
2023-03-31T11:27:41.629Z,8.70
2023-03-31T11:30:51.239Z,8.73
2023-03-31T11:33:46.657Z,9.02
2023-03-31T11:37:02.745Z,9.35
2023-03-31T11:40:16.107Z,9.84
2023-03-31T11:43:28.424Z,10.09
2023-03-31T11:46:24.794Z,10.40
2023-03-31T11:49:22.816Z,10.70
2023-03-31T11:52:16.690Z,10.94
2023-03-31T11:55:15.612Z,11.11
2023-03-31T11:58:16.293Z,11.42
2023-03-31T12:01:18.805Z,11.71
2023-03-31T12:04:11.481Z,11.80
2023-03-31T12:07:03.921Z,12.04
2023-03-31T12:10:21.826Z,12.29
2023-03-31T12:13:36.145Z,12.61
2023-03-31T12:16:46.345Z,12.84
2023-03-31T12:19:51.563Z,13.03
2023-03-31T12:22:43.253Z,13.37
2023-03-31T12:25:56.268Z,13.59
2023-03-31T12:28:45.630Z,13.31
2023-03-31T12:31:33.470Z,13.43
2023-03-31T12:34:22.201Z,13.54
2023-03-31T12:37:24.503Z,13.66
2023-03-31T12:40:29.765Z,13.53
2023-03-31T12:43:26.576Z,13.68
2023-03-31T12:46:32.570Z,14.03
2023-03-31T12:49:50.528Z,14.17
2023-03-31T12:52:56.573Z,14.80
2023-03-31T12:55:47.549Z,15.17
2023-03-31T12:58:48.684Z,14.66
2023-03-31T13:01:35.137Z,14.27
2023-03-31T13:04:26.577Z,13.31
2023-03-31T13:07:28.362Z,12.41
2023-03-31T13:10:19.039Z,11.75
2023-03-31T13:13:13.425Z,11.50
2023-03-31T13:16:01.991Z,11.24
2023-03-31T13:18:53.683Z,11.18
2023-03-31T13:21:54.414Z,11.25
2023-03-31T13:24:41.512Z,11.36
2023-03-31T13:27:34.271Z,11.63
2023-03-31T13:30:52.020Z,12.24
2023-03-31T13:33:59.887Z,12.88
2023-03-31T13:37:25.170Z,13.61
2023-03-31T13:40:40.009Z,13.70
2023-03-31T13:43:52.738Z,13.66
2023-03-31T13:46:45.664Z,13.18
2023-03-31T13:49:54.045Z,12.78
2023-03-31T13:53:07.248Z,12.80
2023-03-31T13:56:21.951Z,12.58
2023-03-31T13:59:28.558Z,12.77
2023-03-31T14:02:33.453Z,13.03
2023-03-31T14:05:30.628Z,13.21
2023-03-31T14:08:39.853Z,13.35
2023-03-31T14:11:33.012Z,13.45
2023-03-31T14:14:19.730Z,13.75
2023-03-31T14:17:06.636Z,13.82
2023-03-31T14:20:08.607Z,13.99
2023-03-31T14:22:55.542Z,14.09
2023-03-31T14:25:53.250Z,14.35
2023-03-31T14:29:11.170Z,14.46
2023-03-31T14:32:19.844Z,14.72
2023-03-31T14:35:28.795Z,14.66
2023-03-31T14:38:20.906Z,14.46
2023-03-31T14:41:15.903Z,14.18
2023-03-31T14:44:04.374Z,14.30
2023-03-31T14:46:51.436Z,14.56
2023-03-31T14:49:39.170Z,14.81
2023-03-31T14:52:30.451Z,14.78
2023-03-31T14:55:21.638Z,14.49
2023-03-31T14:58:11.890Z,14.40
2023-03-31T15:00:59.346Z,14.33
2023-03-31T15:03:47.286Z,14.31
2023-03-31T15:06:34.019Z,14.59
2023-03-31T15:09:40.495Z,14.40
2023-03-31T15:12:29.472Z,14.20
2023-03-31T15:15:19.670Z,14.19
2023-03-31T15:18:06.550Z,14.10
2023-03-31T15:20:53.667Z,14.14
2023-03-31T15:23:40.642Z,14.38
2023-03-31T15:26:41.648Z,14.10
2023-03-31T15:29:36.820Z,14.18
2023-03-31T15:32:43.410Z,14.36
2023-03-31T15:35:35.722Z,14.31
2023-03-31T15:38:27.506Z,14.18
2023-03-31T15:41:16.930Z,14.08
2023-03-31T15:44:27.008Z,14.11
2023-03-31T15:47:22.225Z,13.99
2023-03-31T15:50:10.039Z,13.91
2023-03-31T15:53:01.319Z,13.96
2023-03-31T15:55:47.819Z,13.84
2023-03-31T15:58:55.824Z,13.68
2023-03-31T16:01:45.870Z,13.28
2023-03-31T16:04:33.173Z,13.41
2023-03-31T16:07:22.378Z,13.33
2023-03-31T16:10:23.213Z,13.13
2023-03-31T16:13:18.396Z,13.01
2023-03-31T16:16:13.439Z,12.90
2023-03-31T16:19:10.039Z,12.80
2023-03-31T16:22:01.876Z,12.64
2023-03-31T16:24:49.378Z,12.54
2023-03-31T16:27:41.979Z,12.50
2023-03-31T16:30:39.609Z,12.41
2023-03-31T16:33:26.634Z,12.18
2023-03-31T16:36:16.053Z,12.15
2023-03-31T16:39:05.216Z,12.15
2023-03-31T16:41:51.691Z,12.01
2023-03-31T16:44:37.996Z,12.17
2023-03-31T16:50:31.729Z,12.13
2023-03-31T16:53:20.543Z,12.06
2023-03-31T16:56:08.205Z,12.05
2023-03-31T16:58:55.114Z,11.90
2023-03-31T17:01:41.797Z,11.97
2023-03-31T17:04:28.222Z,11.84
2023-03-31T17:07:14.864Z,11.75
2023-03-31T17:10:01.071Z,11.73
2023-03-31T17:12:47.628Z,11.57
2023-03-31T17:15:36.434Z,11.50
2023-03-31T17:18:23.288Z,11.52
2023-03-31T17:21:13.624Z,11.35
2023-03-31T17:24:01.852Z,11.40
2023-03-31T17:26:49.548Z,11.33
2023-03-31T17:29:35.864Z,11.26
2023-03-31T17:32:22.690Z,11.16
2023-03-31T17:35:10.433Z,11.01
2023-03-31T17:37:57.308Z,11.01
2023-03-31T17:40:43.672Z,10.79
2023-03-31T17:43:30.339Z,10.49
2023-03-31T17:46:17.854Z,10.18
2023-03-31T17:49:04.476Z,9.97
2023-03-31T17:51:51.180Z,9.78
2023-03-31T17:54:37.863Z,9.52
2023-03-31T17:57:24.116Z,9.71
2023-03-31T18:04:49.000Z,9.35
2023-03-31T18:07:36.178Z,9.36
2023-03-31T18:10:22.796Z,9.27
2023-03-31T18:13:09.869Z,9.30
2023-03-31T18:15:56.236Z,9.21
2023-03-31T18:18:43.841Z,9.09
2023-03-31T18:21:30.675Z,9.03
2023-03-31T18:24:18.709Z,8.87
2023-03-31T18:27:06.486Z,8.85
2023-03-31T18:29:52.987Z,8.80
2023-03-31T18:32:39.530Z,8.70
2023-03-31T18:35:27.428Z,8.59
2023-03-31T18:38:14.012Z,8.57
2023-03-31T18:41:00.635Z,8.55
2023-03-31T18:43:47.794Z,8.46
2023-03-31T18:46:34.415Z,8.44
2023-03-31T18:49:21.206Z,8.35
2023-03-31T18:52:07.472Z,8.32
2023-03-31T18:54:54.027Z,8.32
2023-03-31T18:57:40.912Z,8.24
2023-03-31T19:00:27.352Z,8.25
2023-03-31T19:03:13.836Z,8.28
2023-03-31T19:06:05.961Z,8.23
2023-03-31T19:08:54.598Z,8.24
2023-03-31T19:11:41.756Z,8.18
2023-03-31T19:14:28.121Z,8.17
2023-03-31T19:17:14.595Z,8.11
2023-03-31T19:20:00.907Z,8.33
2023-03-31T19:22:50.115Z,8.48
2023-03-31T19:25:36.933Z,8.44
2023-03-31T19:28:24.623Z,8.24
2023-03-31T19:31:11.543Z,8.06
2023-03-31T19:33:58.520Z,8.23
2023-03-31T19:36:44.963Z,8.24
2023-03-31T19:39:31.739Z,8.55
2023-03-31T19:42:18.537Z,8.58
2023-03-31T19:45:05.476Z,8.60
2023-03-31T19:47:51.760Z,8.84
2023-03-31T19:50:38.488Z,8.92
2023-03-31T19:53:25.890Z,9.01
2023-03-31T19:56:15.780Z,9.14
2023-03-31T19:59:02.729Z,9.19
2023-03-31T20:01:49.342Z,9.16
2023-03-31T20:04:36.898Z,9.29
2023-03-31T20:07:23.673Z,9.22
2023-03-31T20:10:13.788Z,9.24
2023-03-31T20:13:00.204Z,9.23
2023-03-31T20:15:46.908Z,9.04
2023-03-31T20:18:34.732Z,9.03
2023-03-31T20:21:23.911Z,9.01
2023-03-31T20:24:16.329Z,9.05
2023-03-31T20:27:03.050Z,9.00
2023-03-31T20:29:49.786Z,8.98
2023-03-31T20:32:38.936Z,9.01
2023-03-31T20:35:25.495Z,9.12
2023-03-31T20:38:11.612Z,8.95
2023-03-31T20:40:57.905Z,8.92
2023-03-31T20:43:45.167Z,8.83
2023-03-31T20:46:31.715Z,8.94
2023-03-31T20:49:18.110Z,8.67
2023-03-31T20:52:04.675Z,8.78
2023-03-31T20:54:51.221Z,8.79
2023-03-31T20:57:37.837Z,8.67
2023-03-31T21:00:24.508Z,8.62
2023-03-31T21:03:11.258Z,8.71
2023-03-31T21:06:01.804Z,8.64
2023-03-31T21:08:52.276Z,8.65
2023-03-31T21:11:40.557Z,8.53
2023-03-31T21:14:30.521Z,8.73
2023-03-31T21:17:17.238Z,8.62
2023-03-31T21:20:04.344Z,8.73
2023-03-31T21:22:50.809Z,8.73
2023-03-31T21:25:37.120Z,8.81
2023-03-31T21:28:28.945Z,8.62
2023-03-31T21:31:18.270Z,8.73
2023-03-31T21:34:05.309Z,8.73
2023-03-31T21:36:51.657Z,8.89
2023-03-31T21:39:37.947Z,8.92
2023-03-31T21:42:24.785Z,8.92
2023-03-31T21:45:12.211Z,8.95
2023-03-31T21:47:58.543Z,8.99
2023-03-31T21:50:45.975Z,9.04
2023-03-31T21:53:32.640Z,9.15
2023-03-31T21:56:19.407Z,9.08
2023-03-31T21:59:06.013Z,8.97
2023-03-31T22:01:52.693Z,9.13
2023-03-31T22:04:39.554Z,9.11
2023-03-31T22:07:26.256Z,8.93
2023-03-31T22:10:13.120Z,8.86
2023-03-31T22:12:59.773Z,8.93
2023-03-31T22:15:47.498Z,8.93
2023-03-31T22:18:33.988Z,8.99
2023-03-31T22:21:26.092Z,9.11
2023-03-31T22:24:15.718Z,9.09
2023-03-31T22:27:03.109Z,9.16
2023-03-31T22:29:49.602Z,9.12
2023-03-31T22:32:36.060Z,9.08
2023-03-31T22:35:25.910Z,9.06
2023-03-31T22:38:15.596Z,8.99
2023-03-31T22:41:02.330Z,8.92
2023-03-31T22:43:48.791Z,8.97
2023-03-31T22:46:36.166Z,8.88
2023-03-31T22:49:22.626Z,8.80
2023-03-31T22:52:09.280Z,8.74
2023-03-31T22:54:55.578Z,8.80
2023-03-31T22:57:42.633Z,8.80
2023-03-31T23:00:29.050Z,8.82
2023-03-31T23:03:15.566Z,8.71
2023-03-31T23:06:06.548Z,8.73
2023-03-31T23:08:53.278Z,8.57
2023-03-31T23:11:39.657Z,8.54
2023-03-31T23:14:26.958Z,8.50
2023-03-31T23:17:13.510Z,8.41
2023-03-31T23:20:00.591Z,8.50
2023-03-31T23:22:46.947Z,8.32
2023-03-31T23:25:33.681Z,8.23
2023-03-31T23:28:20.349Z,8.23
2023-03-31T23:31:09.987Z,8.40
2023-03-31T23:33:57.723Z,8.41
2023-03-31T23:36:44.179Z,8.51
2023-03-31T23:39:30.333Z,8.35
2023-03-31T23:42:20.456Z,8.64
2023-03-31T23:45:09.010Z,8.59
2023-03-31T23:47:55.603Z,8.68
2023-03-31T23:50:42.219Z,8.68
2023-03-31T23:53:29.288Z,8.74
2023-03-31T23:56:16.986Z,8.80
2023-03-31T23:59:03.955Z,8.77
